sensor_id;sensor_type;location;lat;lon;timestamp;pressure;altitude;pressure_sealevel;temperature;humidity
66164;BME280;52962;51.088;3.096;2022-09-13T00:02:18;100721.72;;;22.08;100.00
66164;BME280;52962;51.088;3.096;2022-09-13T00:04:46;100719.97;;;22.07;100.00
66164;BME280;52962;51.088;3.096;2022-09-13T00:07:13;100720.09;;;22.02;100.00
66164;BME280;52962;51.088;3.096;2022-09-13T00:09:43;100712.19;;;21.96;100.00
66164;BME280;52962;51.088;3.096;2022-09-13T00:12:10;100705.25;;;21.89;100.00
66164;BME280;52962;51.088;3.096;2022-09-13T00:14:38;100716.19;;;21.83;100.00
66164;BME280;52962;51.088;3.096;2022-09-13T00:17:06;100716.38;;;21.75;100.00
66164;BME280;52962;51.088;3.096;2022-09-13T00:19:34;100715.56;;;21.73;100.00
66164;BME280;52962;51.088;3.096;2022-09-13T00:22:02;100706.75;;;21.68;100.00
66164;BME280;52962;51.088;3.096;2022-09-13T00:24:32;100711.16;;;21.71;100.00
66164;BME280;52962;51.088;3.096;2022-09-13T00:27:01;100704.03;;;21.70;100.00
66164;BME280;52962;51.088;3.096;2022-09-13T00:29:29;100698.72;;;21.68;100.00
66164;BME280;52962;51.088;3.096;2022-09-13T00:31:57;100708.44;;;21.72;100.00
66164;BME280;52962;51.088;3.096;2022-09-13T00:34:24;100704.03;;;21.70;100.00
66164;BME280;52962;51.088;3.096;2022-09-13T00:36:52;100699.72;;;21.64;100.00
66164;BME280;52962;51.088;3.096;2022-09-13T00:39:20;100704.28;;;21.61;100.00
66164;BME280;52962;51.088;3.096;2022-09-13T00:41:48;100694.53;;;21.58;100.00
66164;BME280;52962;51.088;3.096;2022-09-13T00:47:31;100712.44;;;21.56;100.00
66164;BME280;52962;51.088;3.096;2022-09-13T00:50:05;100716.09;;;21.53;100.00
66164;BME280;52962;51.088;3.096;2022-09-13T00:52:35;100717.94;;;21.51;100.00
66164;BME280;52962;51.088;3.096;2022-09-13T00:55:14;100710.91;;;21.47;100.00
66164;BME280;52962;51.088;3.096;2022-09-13T00:57:43;100718.09;;;21.45;100.00
66164;BME280;52962;51.088;3.096;2022-09-13T01:00:14;100713.00;;;21.35;100.00
66164;BME280;52962;51.088;3.096;2022-09-13T01:02:48;100716.88;;;21.23;100.00
66164;BME280;52962;51.088;3.096;2022-09-13T01:05:19;100720.47;;;21.22;100.00
66164;BME280;52962;51.088;3.096;2022-09-13T01:07:48;100721.31;;;21.24;100.00
66164;BME280;52962;51.088;3.096;2022-09-13T01:10:16;100716.94;;;21.20;100.00
66164;BME280;52962;51.088;3.096;2022-09-13T01:12:49;100716.94;;;21.20;100.00
66164;BME280;52962;51.088;3.096;2022-09-13T01:15:20;100715.97;;;21.24;100.00
66164;BME280;52962;51.088;3.096;2022-09-13T01:17:51;100715.88;;;21.27;100.00
66164;BME280;52962;51.088;3.096;2022-09-13T01:20:20;100722.91;;;21.31;100.00
66164;BME280;52962;51.088;3.096;2022-09-13T01:23:11;100730.13;;;21.29;100.00
66164;BME280;52962;51.088;3.096;2022-09-13T01:29:00;100729.28;;;21.27;100.00
66164;BME280;52962;51.088;3.096;2022-09-13T01:31:36;100728.44;;;21.25;100.00
66164;BME280;52962;51.088;3.096;2022-09-13T01:34:17;100733.78;;;21.25;100.00
66164;BME280;52962;51.088;3.096;2022-09-13T01:36:55;100726.72;;;21.23;100.00
66164;BME280;52962;51.088;3.096;2022-09-13T01:39:35;100727.63;;;21.21;100.00
66164;BME280;52962;51.088;3.096;2022-09-13T01:42:14;100732.16;;;21.18;100.00
66164;BME280;52962;51.088;3.096;2022-09-13T01:44:58;100730.41;;;21.17;100.00
66164;BME280;52962;51.088;3.096;2022-09-13T01:47:31;100726.78;;;21.18;100.00
66164;BME280;52962;51.088;3.096;2022-09-13T01:50:14;100732.22;;;21.15;100.00
66164;BME280;52962;51.088;3.096;2022-09-13T01:52:51;100738.53;;;21.12;100.00
66164;BME280;52962;51.088;3.096;2022-09-13T01:55:31;100755.56;;;21.10;100.00
66164;BME280;52962;51.088;3.096;2022-09-13T01:58:06;100749.38;;;21.08;100.00
66164;BME280;52962;51.088;3.096;2022-09-13T02:00:42;100764.59;;;21.06;100.00
66164;BME280;52962;51.088;3.096;2022-09-13T02:03:15;100773.53;;;21.05;100.00
66164;BME280;52962;51.088;3.096;2022-09-13T02:05:48;100769.97;;;21.04;100.00
66164;BME280;52962;51.088;3.096;2022-09-13T02:08:23;100771.84;;;21.01;100.00
66164;BME280;52962;51.088;3.096;2022-09-13T02:10:58;100762.94;;;21.00;100.00
66164;BME280;52962;51.088;3.096;2022-09-13T02:13:34;100770.09;;;21.00;100.00
66164;BME280;52962;51.088;3.096;2022-09-13T02:16:07;100754.91;;;21.00;100.00
66164;BME280;52962;51.088;3.096;2022-09-13T02:18:38;100762.91;;;21.02;100.00
66164;BME280;52962;51.088;3.096;2022-09-13T02:21:11;100764.72;;;21.00;100.00
66164;BME280;52962;51.088;3.096;2022-09-13T02:23:43;100770.09;;;21.00;100.00
66164;BME280;52962;51.088;3.096;2022-09-13T02:26:16;100779.91;;;20.99;100.00
66164;BME280;52962;51.088;3.096;2022-09-13T02:28:48;100779.25;;;20.89;100.00
66164;BME280;52962;51.088;3.096;2022-09-13T02:31:23;100781.22;;;20.81;100.00
66164;BME280;52962;51.088;3.096;2022-09-13T02:33:56;100775.84;;;20.81;100.00
66164;BME280;52962;51.088;3.096;2022-09-13T02:36:30;100766.78;;;20.88;100.00
66164;BME280;52962;51.088;3.096;2022-09-13T02:39:02;100764.88;;;20.94;100.00
66164;BME280;52962;51.088;3.096;2022-09-13T02:41:36;100746.94;;;20.97;100.00
66164;BME280;52962;51.088;3.096;2022-09-13T02:44:08;100755.78;;;21.01;100.00
66164;BME280;52962;51.088;3.096;2022-09-13T02:46:46;100750.44;;;21.01;100.00
66164;BME280;52962;51.088;3.096;2022-09-13T02:49:24;100739.69;;;21.02;100.00
66164;BME280;52962;51.088;3.096;2022-09-13T02:52:06;100743.09;;;21.09;100.00
66164;BME280;52962;51.088;3.096;2022-09-13T02:54:41;100735.09;;;21.07;100.00
66164;BME280;52962;51.088;3.096;2022-09-13T02:57:13;100737.66;;;21.12;100.00
66164;BME280;52962;51.088;3.096;2022-09-13T02:59:44;100734.13;;;21.10;100.00
66164;BME280;52962;51.088;3.096;2022-09-13T03:02:15;100732.44;;;21.06;100.00
66164;BME280;52962;51.088;3.096;2022-09-13T03:04:45;100718.16;;;21.07;100.00
66164;BME280;52962;51.088;3.096;2022-09-13T03:07:13;100730.47;;;21.14;100.00
66164;BME280;52962;51.088;3.096;2022-09-13T03:09:46;100724.22;;;21.13;100.00
66164;BME280;52962;51.088;3.096;2022-09-13T03:12:50;100718.84;;;21.15;100.00
66164;BME280;52962;51.088;3.096;2022-09-13T03:15:31;100719.75;;;21.14;100.00
66164;BME280;52962;51.088;3.096;2022-09-13T03:18:07;100718.06;;;21.10;100.00
66164;BME280;52962;51.088;3.096;2022-09-13T03:20:46;100716.34;;;21.07;100.00
66164;BME280;52962;51.088;3.096;2022-09-13T03:23:34;100718.22;;;21.04;100.00
66164;BME280;52962;51.088;3.096;2022-09-13T03:26:19;100714.78;;;20.99;100.00
66164;BME280;52962;51.088;3.096;2022-09-13T03:28:56;100713.03;;;20.98;100.00
66164;BME280;52962;51.088;3.096;2022-09-13T03:31:32;100714.94;;;20.93;100.00
66164;BME280;52962;51.088;3.096;2022-09-13T03:34:07;100713.25;;;20.88;100.00
66164;BME280;52962;51.088;3.096;2022-09-13T03:36:43;100710.59;;;20.87;100.00
66164;BME280;52962;51.088;3.096;2022-09-13T03:39:23;100702.59;;;20.85;100.00
66164;BME280;52962;51.088;3.096;2022-09-13T03:41:57;100714.19;;;20.86;100.00
66164;BME280;52962;51.088;3.096;2022-09-13T03:44:28;100707.13;;;20.83;100.00
66164;BME280;52962;51.088;3.096;2022-09-13T03:47:00;100711.63;;;20.81;100.00
66164;BME280;52962;51.088;3.096;2022-09-13T03:49:30;100714.31;;;20.81;100.00
66164;BME280;52962;51.088;3.096;2022-09-13T03:52:00;100712.53;;;20.80;100.00
66164;BME280;52962;51.088;3.096;2022-09-13T03:54:30;100709.88;;;20.80;100.00
66164;BME280;52962;51.088;3.096;2022-09-13T03:57:09;100713.50;;;20.79;100.00
66164;BME280;52962;51.088;3.096;2022-09-13T03:59:40;100707.25;;;20.79;100.00
66164;BME280;52962;51.088;3.096;2022-09-13T04:02:09;100717.09;;;20.78;100.00
66164;BME280;52962;51.088;3.096;2022-09-13T04:04:38;100711.88;;;20.72;100.00
66164;BME280;52962;51.088;3.096;2022-09-13T04:07:09;100709.25;;;20.71;100.00
66164;BME280;52962;51.088;3.096;2022-09-13T04:09:37;100713.72;;;20.70;100.00
66164;BME280;52962;51.088;3.096;2022-09-13T04:12:09;100715.53;;;20.68;100.00
66164;BME280;52962;51.088;3.096;2022-09-13T04:14:37;100716.44;;;20.67;100.00
66164;BME280;52962;51.088;3.096;2022-09-13T04:17:05;100712.09;;;20.63;100.00
66164;BME280;52962;51.088;3.096;2022-09-13T04:19:33;100715.66;;;20.64;100.00
66164;BME280;52962;51.088;3.096;2022-09-13T04:22:01;100723.66;;;20.64;100.00
66164;BME280;52962;51.088;3.096;2022-09-13T04:24:30;100716.56;;;20.63;100.00
66164;BME280;52962;51.088;3.096;2022-09-13T04:26:58;100724.66;;;20.60;100.00
66164;BME280;52962;51.088;3.096;2022-09-13T04:29:28;100729.09;;;20.61;100.00
66164;BME280;52962;51.088;3.096;2022-09-13T04:31:57;100724.69;;;20.58;100.00
66164;BME280;52962;51.088;3.096;2022-09-13T04:34:25;100727.44;;;20.55;100.00
66164;BME280;52962;51.088;3.096;2022-09-13T04:36:54;100729.28;;;20.51;100.00
66164;BME280;52962;51.088;3.096;2022-09-13T04:39:22;100726.63;;;20.51;100.00
66164;BME280;52962;51.088;3.096;2022-09-13T04:41:51;100736.38;;;20.54;100.00
66164;BME280;52962;51.088;3.096;2022-09-13T04:44:21;100731.88;;;20.56;100.00
66164;BME280;52962;51.088;3.096;2022-09-13T04:46:50;100727.41;;;20.56;100.00
66164;BME280;52962;51.088;3.096;2022-09-13T04:49:18;100730.94;;;20.57;100.00
66164;BME280;52962;51.088;3.096;2022-09-13T04:51:47;100729.09;;;20.61;100.00
66164;BME280;52962;51.088;3.096;2022-09-13T04:54:15;100730.88;;;20.60;100.00
66164;BME280;52962;51.088;3.096;2022-09-13T04:56:43;100734.38;;;20.64;100.00
66164;BME280;52962;51.088;3.096;2022-09-13T04:59:14;100737.00;;;20.65;100.00
66164;BME280;52962;51.088;3.096;2022-09-13T05:01:42;100737.00;;;20.65;100.00
66164;BME280;52962;51.088;3.096;2022-09-13T05:04:10;100744.13;;;20.66;100.00
66164;BME280;52962;51.088;3.096;2022-09-13T05:06:38;100740.53;;;20.67;100.00
66164;BME280;52962;51.088;3.096;2022-09-13T05:09:05;100753.88;;;20.69;100.00
66164;BME280;52962;51.088;3.096;2022-09-13T05:11:33;100758.47;;;20.62;100.00
66164;BME280;52962;51.088;3.096;2022-09-13T05:14:01;100754.06;;;20.61;100.00
66164;BME280;52962;51.088;3.096;2022-09-13T05:16:31;100762.97;;;20.62;100.00
66164;BME280;52962;51.088;3.096;2022-09-13T05:18:59;100760.31;;;20.60;100.00
66164;BME280;52962;51.088;3.096;2022-09-13T05:21:28;100771.88;;;20.62;100.00
66164;BME280;52962;51.088;3.096;2022-09-13T05:23:57;100771.91;;;20.61;100.00
66164;BME280;52962;51.088;3.096;2022-09-13T05:26:27;100776.38;;;20.60;100.00
66164;BME280;52962;51.088;3.096;2022-09-13T05:28:57;100781.69;;;20.62;100.00
66164;BME280;52962;51.088;3.096;2022-09-13T05:31:27;100778.13;;;20.61;100.00
66164;BME280;52962;51.088;3.096;2022-09-13T05:33:59;100769.19;;;20.62;100.00
66164;BME280;52962;51.088;3.096;2022-09-13T05:36:27;100769.19;;;20.62;100.00
66164;BME280;52962;51.088;3.096;2022-09-13T05:38:56;100780.75;;;20.64;100.00
66164;BME280;52962;51.088;3.096;2022-09-13T05:41:44;100776.22;;;20.66;100.00
66164;BME280;52962;51.088;3.096;2022-09-13T05:44:12;100782.38;;;20.71;100.00
66164;BME280;52962;51.088;3.096;2022-09-13T05:46:40;100782.44;;;20.68;100.00
66164;BME280;52962;51.088;3.096;2022-09-13T05:49:11;100788.69;;;20.67;100.00
66164;BME280;52962;51.088;3.096;2022-09-13T05:51:40;100786.88;;;20.69;100.00
66164;BME280;52962;51.088;3.096;2022-09-13T05:54:10;100790.47;;;20.68;100.00
66164;BME280;52962;51.088;3.096;2022-09-13T05:56:39;100788.63;;;20.70;100.00
66164;BME280;52962;51.088;3.096;2022-09-13T05:59:10;100782.38;;;20.71;100.00
66164;BME280;52962;51.088;3.096;2022-09-13T06:01:39;100779.69;;;20.71;100.00
66164;BME280;52962;51.088;3.096;2022-09-13T06:04:07;100776.09;;;20.72;100.00
66164;BME280;52962;51.088;3.096;2022-09-13T06:06:39;100775.19;;;20.73;100.00
66164;BME280;52962;51.088;3.096;2022-09-13T06:09:10;100776.94;;;20.74;100.00
66164;BME280;52962;51.088;3.096;2022-09-13T06:11:39;100768.84;;;20.77;100.00
66164;BME280;52962;51.088;3.096;2022-09-13T06:14:07;100770.59;;;20.78;100.00
66164;BME280;52962;51.088;3.096;2022-09-13T06:16:34;100775.13;;;20.76;100.00
66164;BME280;52962;51.088;3.096;2022-09-13T06:19:02;100768.75;;;20.80;100.00
66164;BME280;52962;51.088;3.096;2022-09-13T06:21:30;100773.25;;;20.80;100.00
66164;BME280;52962;51.088;3.096;2022-09-13T06:23:59;100776.91;;;20.76;100.00
66164;BME280;52962;51.088;3.096;2022-09-13T06:26:27;100770.66;;;20.77;100.00
66164;BME280;52962;51.088;3.096;2022-09-13T06:28:56;100774.09;;;20.80;100.00
66164;BME280;52962;51.088;3.096;2022-09-13T06:31:25;100769.53;;;20.85;100.00
66164;BME280;52962;51.088;3.096;2022-09-13T06:33:56;100775.66;;;20.90;100.00
66164;BME280;52962;51.088;3.096;2022-09-13T06:36:24;100789.81;;;20.96;100.00
66164;BME280;52962;51.088;3.096;2022-09-13T06:38:52;100786.09;;;21.01;100.00
66164;BME280;52962;51.088;3.096;2022-09-13T06:41:23;100781.56;;;21.05;100.00
66164;BME280;52962;51.088;3.096;2022-09-13T06:43:53;100766.28;;;21.10;100.00
66164;BME280;52962;51.088;3.096;2022-09-13T06:46:23;100775.00;;;21.18;100.00
66164;BME280;52962;51.088;3.096;2022-09-13T06:48:52;100773.94;;;21.27;100.00
66164;BME280;52962;51.088;3.096;2022-09-13T06:51:21;100773.75;;;21.34;100.00
66164;BME280;52962;51.088;3.096;2022-09-13T06:53:51;100778.91;;;21.42;100.00
66164;BME280;52962;51.088;3.096;2022-09-13T06:56:20;100775.19;;;21.47;100.00
66164;BME280;52962;51.088;3.096;2022-09-13T06:58:51;100778.50;;;21.57;100.00
66164;BME280;52962;51.088;3.096;2022-09-13T07:01:21;100781.06;;;21.62;100.00
66164;BME280;52962;51.088;3.096;2022-09-13T07:03:51;100787.13;;;21.70;100.00
66164;BME280;52962;51.088;3.096;2022-09-13T07:06:22;100780.69;;;21.77;100.00
66164;BME280;52962;51.088;3.096;2022-09-13T07:08:53;100778.63;;;21.85;100.00
66164;BME280;52962;51.088;3.096;2022-09-13T07:11:22;100776.78;;;21.87;100.00
66164;BME280;52962;51.088;3.096;2022-09-13T07:13:53;100781.06;;;21.94;100.00
66164;BME280;52962;51.088;3.096;2022-09-13T07:16:23;100778.31;;;21.97;100.00
66164;BME280;52962;51.088;3.096;2022-09-13T07:18:53;100785.34;;;22.01;100.00
66164;BME280;52962;51.088;3.096;2022-09-13T07:21:22;100782.56;;;22.06;100.00
66164;BME280;52962;51.088;3.096;2022-09-13T07:23:51;100777.88;;;22.14;100.00
66164;BME280;52962;51.088;3.096;2022-09-13T07:26:19;100780.38;;;22.20;100.00
66164;BME280;52962;51.088;3.096;2022-09-13T07:28:48;100784.59;;;22.29;100.00
66164;BME280;52962;51.088;3.096;2022-09-13T07:31:19;100781.75;;;22.35;100.00
66164;BME280;52962;51.088;3.096;2022-09-13T07:33:52;100778.84;;;22.42;100.00
66164;BME280;52962;51.088;3.096;2022-09-13T07:36:21;100767.97;;;22.47;100.00
66164;BME280;52962;51.088;3.096;2022-09-13T07:38:49;100768.66;;;22.54;100.00
66164;BME280;52962;51.088;3.096;2022-09-13T07:41:19;100775.56;;;22.62;100.00
66164;BME280;52962;51.088;3.096;2022-09-13T07:43:47;100778.06;;;22.68;100.00
66164;BME280;52962;51.088;3.096;2022-09-13T07:46:18;100779.63;;;22.75;100.00
66164;BME280;52962;51.088;3.096;2022-09-13T07:48:47;100777.63;;;22.83;100.00
66164;BME280;52962;51.088;3.096;2022-09-13T07:51:17;100779.16;;;22.91;100.00
66164;BME280;52962;51.088;3.096;2022-09-13T07:53:47;100773.75;;;22.92;100.00
66164;BME280;52962;51.088;3.096;2022-09-13T07:56:24;100783.50;;;22.95;100.00
66164;BME280;52962;51.088;3.096;2022-09-13T07:58:52;100773.66;;;22.95;100.00
66164;BME280;52962;51.088;3.096;2022-09-13T08:01:24;100778.00;;;22.99;100.00
66164;BME280;52962;51.088;3.096;2022-09-13T08:03:53;100773.34;;;23.04;100.00
66164;BME280;52962;51.088;3.096;2022-09-13T08:06:22;100776.72;;;23.11;100.00
66164;BME280;52962;51.088;3.096;2022-09-13T08:08:50;100782.91;;;23.13;100.00
66164;BME280;52962;51.088;3.096;2022-09-13T08:11:18;100780.34;;;23.10;100.00
66164;BME280;52962;51.088;3.096;2022-09-13T08:13:48;100784.53;;;23.19;100.00
66164;BME280;52962;51.088;3.096;2022-09-13T08:16:17;100783.56;;;23.21;100.00
66164;BME280;52962;51.088;3.096;2022-09-13T08:18:49;100773.69;;;23.22;100.00
66164;BME280;52962;51.088;3.096;2022-09-13T08:21:17;100778.06;;;23.24;100.00
66164;BME280;52962;51.088;3.096;2022-09-13T08:23:46;100780.56;;;23.30;100.00
66164;BME280;52962;51.088;3.096;2022-09-13T08:26:15;100767.03;;;23.33;100.00
66164;BME280;52962;51.088;3.096;2022-09-13T08:28:43;100761.13;;;23.48;100.00
66164;BME280;52962;51.088;3.096;2022-09-13T08:31:13;100758.22;;;23.56;100.00
66164;BME280;52962;51.088;3.096;2022-09-13T08:33:44;100750.06;;;23.59;100.00
66164;BME280;52962;51.088;3.096;2022-09-13T08:36:15;100753.34;;;23.67;100.00
66164;BME280;52962;51.088;3.096;2022-09-13T08:38:46;100761.91;;;23.78;100.00
66164;BME280;52962;51.088;3.096;2022-09-13T08:41:32;100770.66;;;23.85;100.00
66164;BME280;52962;51.088;3.096;2022-09-13T08:44:09;100770.28;;;23.94;100.00
66164;BME280;52962;51.088;3.096;2022-09-13T08:46:42;100770.88;;;24.02;100.00
66164;BME280;52962;51.088;3.096;2022-09-13T08:49:14;100766.50;;;24.00;100.00
66164;BME280;52962;51.088;3.096;2022-09-13T08:51:46;100768.09;;;24.05;100.00
66164;BME280;52962;51.088;3.096;2022-09-13T08:54:15;100765.88;;;24.17;100.00
66164;BME280;52962;51.088;3.096;2022-09-13T08:56:50;100771.84;;;24.26;100.00
66164;BME280;52962;51.088;3.096;2022-09-13T08:59:28;100771.59;;;24.32;100.00
66164;BME280;52962;51.088;3.096;2022-09-13T09:02:11;100756.06;;;24.40;100.00
66164;BME280;52962;51.088;3.096;2022-09-13T09:04:46;100761.19;;;24.47;100.00
66164;BME280;52962;51.088;3.096;2022-09-13T09:07:20;100760.91;;;24.54;100.00
66164;BME280;52962;51.088;3.096;2022-09-13T09:09:53;100761.44;;;24.64;100.00
66164;BME280;52962;51.088;3.096;2022-09-13T09:12:27;100749.66;;;24.66;100.00
66164;BME280;52962;51.088;3.096;2022-09-13T09:15:03;100750.31;;;24.73;100.00
66164;BME280;52962;51.088;3.096;2022-09-13T09:17:40;100752.69;;;24.81;100.00
66164;BME280;52962;51.088;3.096;2022-09-13T09:20:20;100749.69;;;24.88;100.00
66164;BME280;52962;51.088;3.096;2022-09-13T09:22:52;100738.91;;;24.88;100.00
66164;BME280;52962;51.088;3.096;2022-09-13T09:25:22;100733.53;;;24.88;100.00
66164;BME280;52962;51.088;3.096;2022-09-13T09:27:51;100738.47;;;24.99;100.00
66164;BME280;52962;51.088;3.096;2022-09-13T09:30:19;100735.53;;;25.05;100.00
66164;BME280;52962;51.088;3.096;2022-09-13T09:33:04;100735.53;;;25.05;100.00
66164;BME280;52962;51.088;3.096;2022-09-13T09:35:49;100726.00;;;25.18;100.00
66164;BME280;52962;51.088;3.096;2022-09-13T09:38:31;100719.59;;;25.21;100.00
66164;BME280;52962;51.088;3.096;2022-09-13T09:41:04;100712.53;;;25.18;100.00
66164;BME280;52962;51.088;3.096;2022-09-13T09:43:38;100713.47;;;25.17;100.00
66164;BME280;52962;51.088;3.096;2022-09-13T09:46:09;100717.78;;;25.21;100.00
66164;BME280;52962;51.088;3.096;2022-09-13T09:48:43;100724.13;;;25.20;100.00
66164;BME280;52962;51.088;3.096;2022-09-13T09:51:13;100720.09;;;25.30;100.00
66164;BME280;52962;51.088;3.096;2022-09-13T09:53:48;100732.38;;;25.37;100.00
66164;BME280;52962;51.088;3.096;2022-09-13T09:56:20;100719.97;;;25.33;100.00
66164;BME280;52962;51.088;3.096;2022-09-13T09:58:50;100717.97;;;25.38;100.00
66164;BME280;52962;51.088;3.096;2022-09-13T10:01:22;100715.09;;;25.21;100.00
66164;BME280;52962;51.088;3.096;2022-09-13T10:03:57;100723.88;;;25.26;100.00
66164;BME280;52962;51.088;3.096;2022-09-13T10:06:28;100725.16;;;25.38;100.00
66164;BME280;52962;51.088;3.096;2022-09-13T10:09:00;100718.22;;;25.32;100.00
66164;BME280;52962;51.088;3.096;2022-09-13T10:11:38;100719.28;;;25.28;100.00
66164;BME280;52962;51.088;3.096;2022-09-13T10:14:26;100711.47;;;25.22;100.00
66164;BME280;52962;51.088;3.096;2022-09-13T10:17:02;100714.28;;;25.19;100.00
66164;BME280;52962;51.088;3.096;2022-09-13T10:19:31;100722.38;;;25.19;100.00
66164;BME280;52962;51.088;3.096;2022-09-13T10:22:01;100716.72;;;25.25;100.00
66164;BME280;52962;51.088;3.096;2022-09-13T10:24:31;100710.31;;;25.28;100.00
66164;BME280;52962;51.088;3.096;2022-09-13T10:26:59;100710.94;;;25.34;100.00
66164;BME280;52962;51.088;3.096;2022-09-13T10:29:30;100714.88;;;25.48;100.00
66164;BME280;52962;51.088;3.096;2022-09-13T10:31:58;100708.34;;;25.53;100.00
66164;BME280;52962;51.088;3.096;2022-09-13T10:34:35;100708.00;;;25.61;100.00
66164;BME280;52962;51.088;3.096;2022-09-13T10:37:11;100706.75;;;25.69;100.00
66164;BME280;52962;51.088;3.096;2022-09-13T10:39:53;100711.00;;;25.75;100.00
66164;BME280;52962;51.088;3.096;2022-09-13T10:42:24;100708.56;;;25.89;100.00
66164;BME280;52962;51.088;3.096;2022-09-13T10:44:54;100713.53;;;25.98;100.00
66164;BME280;52962;51.088;3.096;2022-09-13T10:47:26;100711.34;;;26.06;100.00
66164;BME280;52962;51.088;3.096;2022-09-13T10:49:57;100713.38;;;26.01;100.00
66164;BME280;52962;51.088;3.096;2022-09-13T10:52:31;100723.75;;;26.11;100.00
66164;BME280;52962;51.088;3.096;2022-09-13T10:55:25;100720.25;;;26.08;100.00
66164;BME280;52962;51.088;3.096;2022-09-13T10:57:54;100725.91;;;26.02;100.00
66164;BME280;52962;51.088;3.096;2022-09-13T11:00:30;100729.72;;;25.98;100.00
66164;BME280;52962;51.088;3.096;2022-09-13T11:03:12;100737.03;;;26.15;100.00
66164;BME280;52962;51.088;3.096;2022-09-13T11:05:49;100741.78;;;26.29;100.00
66164;BME280;52962;51.088;3.096;2022-09-13T11:08:32;100746.50;;;26.44;100.00
66164;BME280;52962;51.088;3.096;2022-09-13T11:11:11;100742.94;;;26.44;100.00
66164;BME280;52962;51.088;3.096;2022-09-13T11:13:59;100745.56;;;26.45;100.00
66164;BME280;52962;51.088;3.096;2022-09-13T11:16:42;100744.47;;;26.49;100.00
66164;BME280;52962;51.088;3.096;2022-09-13T11:19:49;100743.81;;;26.44;100.00
66164;BME280;52962;51.088;3.096;2022-09-13T11:22:37;100746.59;;;26.43;100.00
66164;BME280;52962;51.088;3.096;2022-09-13T11:25:20;100751.41;;;26.36;100.00
66164;BME280;52962;51.088;3.096;2022-09-13T11:28:01;100750.19;;;26.23;100.00
66164;BME280;52962;51.088;3.096;2022-09-13T11:30:37;100747.91;;;26.14;100.00
66164;BME280;52962;51.088;3.096;2022-09-13T11:33:27;100748.09;;;26.09;100.00
66164;BME280;52962;51.088;3.096;2022-09-13T11:36:26;100742.16;;;26.01;100.00
66164;BME280;52962;51.088;3.096;2022-09-13T11:39:10;100733.25;;;25.80;100.00
66164;BME280;52962;51.088;3.096;2022-09-13T11:41:47;100728.31;;;25.69;100.00
66164;BME280;52962;51.088;3.096;2022-09-13T11:44:45;100734.22;;;25.57;100.00
66164;BME280;52962;51.088;3.096;2022-09-13T11:47:21;100734.69;;;25.47;100.00
66164;BME280;52962;51.088;3.096;2022-09-13T11:50:17;100729.88;;;25.33;100.00
66164;BME280;52962;51.088;3.096;2022-09-13T11:52:55;100730.13;;;25.27;100.00
66164;BME280;52962;51.088;3.096;2022-09-13T11:55:31;100732.22;;;25.20;100.00
66164;BME280;52962;51.088;3.096;2022-09-13T11:58:03;100739.59;;;25.15;100.00
66164;BME280;52962;51.088;3.096;2022-09-13T12:00:38;100730.91;;;25.08;100.00
66164;BME280;52962;51.088;3.096;2022-09-13T12:03:16;100729.91;;;25.11;100.00
66164;BME280;52962;51.088;3.096;2022-09-13T12:05:50;100736.16;;;25.12;100.00
66164;BME280;52962;51.088;3.096;2022-09-13T12:08:21;100740.66;;;25.11;100.00
66164;BME280;52962;51.088;3.096;2022-09-13T12:10:52;100746.06;;;25.11;100.00
66164;BME280;52962;51.088;3.096;2022-09-13T12:13:24;100756.66;;;25.16;100.00
66164;BME280;52962;51.088;3.096;2022-09-13T12:15:58;100747.44;;;25.21;100.00
66164;BME280;52962;51.088;3.096;2022-09-13T12:18:29;100742.47;;;25.32;100.00
66164;BME280;52962;51.088;3.096;2022-09-13T12:21:03;100731.75;;;25.31;100.00
66164;BME280;52962;51.088;3.096;2022-09-13T12:23:35;100739.84;;;25.31;100.00
66164;BME280;52962;51.088;3.096;2022-09-13T12:26:08;100747.13;;;25.29;100.00
66164;BME280;52962;51.088;3.096;2022-09-13T12:28:44;100750.81;;;25.26;100.00
66164;BME280;52962;51.088;3.096;2022-09-13T12:31:16;100754.53;;;25.24;100.00
66164;BME280;52962;51.088;3.096;2022-09-13T12:33:46;100750.06;;;25.23;100.00
66164;BME280;52962;51.088;3.096;2022-09-13T12:36:35;100750.94;;;25.23;100.00
66164;BME280;52962;51.088;3.096;2022-09-13T12:39:22;100753.84;;;25.19;100.00
66164;BME280;52962;51.088;3.096;2022-09-13T12:42:14;100741.09;;;25.22;100.00
66164;BME280;52962;51.088;3.096;2022-09-13T12:44:55;100743.13;;;25.17;100.00
66164;BME280;52962;51.088;3.096;2022-09-13T12:47:52;100740.41;;;25.17;100.00
66164;BME280;52962;51.088;3.096;2022-09-13T12:50:40;100750.13;;;25.21;100.00
66164;BME280;52962;51.088;3.096;2022-09-13T12:53:35;100748.38;;;25.20;100.00
66164;BME280;52962;51.088;3.096;2022-09-13T12:56:39;100742.44;;;25.12;100.00
66164;BME280;52962;51.088;3.096;2022-09-13T12:59:23;100742.03;;;25.21;100.00
66164;BME280;52962;51.088;3.096;2022-09-13T13:01:54;100742.88;;;25.23;100.00
66164;BME280;52962;51.088;3.096;2022-09-13T13:04:27;100740.47;;;25.16;100.00
66164;BME280;52962;51.088;3.096;2022-09-13T13:06:58;100729.91;;;25.11;100.00
66164;BME280;52962;51.088;3.096;2022-09-13T13:09:34;100731.22;;;25.01;100.00
66164;BME280;52962;51.088;3.096;2022-09-13T13:12:04;100734.03;;;24.98;100.00
66164;BME280;52962;51.088;3.096;2022-09-13T13:14:47;100742.38;;;24.92;100.00
66164;BME280;52962;51.088;3.096;2022-09-13T13:17:43;100735.53;;;24.83;100.00
66164;BME280;52962;51.088;3.096;2022-09-13T13:20:41;100744.91;;;24.73;100.00